Time;durP1;ratioP1;P1;durP2;ratioP2;P2;SDS_P1;SDS_P2;PMS_P1;PMS_P2;Temp;Humidity;BMP_temperature;BMP_pressure;BME280_temperature;BME280_humidity;BME280_pressure;Samples;Min_cycle;Max_cycle;Signal;HPM_P1;HPM_P2
2022/12/16 00:00:28;;;;;;;;;;;-2.20;92.30;;;;;;5088402;28;19908;-75
2022/12/16 00:02:53;;;;;;;;;;;-2.20;92.30;;;;;;5089896;28;19916;-75
2022/12/16 00:05:19;;;;;;;;;;;-2.20;92.30;;;;;;5089833;28;20054;-76
2022/12/16 00:07:45;;;;;;;;;;;-2.20;92.30;;;;;;5087218;28;19912;-75
2022/12/16 00:10:10;;;;;;;;;;;-2.30;92.30;;;;;;5089041;28;19962;-75
2022/12/16 00:12:36;;;;;;;;;;;-2.30;92.20;;;;;;5090746;28;19937;-75
2022/12/16 00:15:01;;;;;;;;;;;-2.30;92.30;;;;;;5089742;28;19915;-75
2022/12/16 00:17:27;;;;;;;;;;;-2.30;92.20;;;;;;5089689;28;20590;-75
2022/12/16 00:19:52;;;;;;;;;;;-2.30;92.20;;;;;;5071067;28;19908;-75
2022/12/16 00:22:18;;;;;;;;;;;-2.30;92.20;;;;;;5088916;28;19919;-75
2022/12/16 00:24:43;;;;;;;;;;;-2.30;92.20;;;;;;5104643;28;20497;-75
2022/12/16 00:27:09;;;;;;;;;;;-2.30;92.20;;;;;;5109640;28;19984;-75
2022/12/16 00:29:34;;;;;;;;;;;-2.40;92.20;;;;;;5109257;28;20260;-75
2022/12/16 00:32:01;;;;;;;;;;;-2.30;92.20;;;;;;5109908;28;19919;-75
2022/12/16 00:34:27;;;;;;;;;;;-2.30;92.20;;;;;;5091408;28;19912;-75
2022/12/16 00:36:52;;;;;;;;;;;-2.40;92.20;;;;;;5109748;28;19961;-76
2022/12/16 00:39:18;;;;;;;;;;;-2.40;92.20;;;;;;5089216;28;19916;-75
2022/12/16 00:41:43;;;;;;;;;;;-2.30;92.20;;;;;;5068897;28;19912;-75
2022/12/16 00:44:09;;;;;;;;;;;-2.40;92.10;;;;;;5075953;28;19916;-75
2022/12/16 00:46:34;;;;;;;;;;;-2.40;92.20;;;;;;5068389;28;19966;-75
2022/12/16 00:49:00;;;;;;;;;;;-2.40;92.10;;;;;;5069676;28;20670;-75
2022/12/16 00:51:26;;;;;;;;;;;-2.40;92.10;;;;;;5089053;28;19912;-75
2022/12/16 00:53:51;;;;;;;;;;;-2.40;92.10;;;;;;5090040;28;20633;-74
2022/12/16 00:56:17;;;;;;;;;;;-2.40;92.00;;;;;;5088938;28;19923;-75
2022/12/16 00:58:43;;;;;;;;;;;-2.40;92.10;;;;;;5070945;28;19986;-75
2022/12/16 01:01:08;;;;;;;;;;;-2.40;92.00;;;;;;5070581;28;19919;-75
2022/12/16 01:03:34;;;;;;;;;;;-2.40;92.00;;;;;;5088483;28;19919;-75
2022/12/16 01:06:00;;;;;;;;;;;-2.50;92.00;;;;;;5087918;28;19948;-75
2022/12/16 01:08:25;;;;;;;;;;;-2.50;92.10;;;;;;5086795;28;19947;-75
2022/12/16 01:10:51;;;;;;;;;;;-2.50;92.00;;;;;;5089453;28;19961;-75
2022/12/16 01:13:18;;;;;;;;;;;-2.50;92.00;;;;;;5088596;28;20405;-75
2022/12/16 01:15:43;;;;;;;;;;;-2.50;92.00;;;;;;5088674;28;19909;-75
2022/12/16 01:18:09;;;;;;;;;;;-2.50;92.00;;;;;;5088577;28;19919;-75
2022/12/16 01:20:35;;;;;;;;;;;-2.50;92.00;;;;;;5069533;28;20019;-75
2022/12/16 01:23:00;;;;;;;;;;;-2.50;92.00;;;;;;5088525;28;20014;-75
2022/12/16 01:25:26;;;;;;;;;;;-2.50;91.90;;;;;;5079158;28;19919;-75
2022/12/16 01:27:52;;;;;;;;;;;-2.50;92.00;;;;;;5108227;28;19953;-75
2022/12/16 01:30:17;;;;;;;;;;;-2.50;91.90;;;;;;5089728;28;19916;-76
2022/12/16 01:32:43;;;;;;;;;;;-2.50;91.90;;;;;;5108631;28;19911;-75
2022/12/16 01:35:09;;;;;;;;;;;-2.50;91.90;;;;;;5108550;28;19943;-75
2022/12/16 01:37:34;;;;;;;;;;;-2.50;91.90;;;;;;5089475;28;19958;-75
2022/12/16 01:40:00;;;;;;;;;;;-2.50;91.90;;;;;;5093561;28;20015;-76
2022/12/16 01:42:29;;;;;;;;;;;-2.50;91.90;;;;;;5087656;28;19967;-75
2022/12/16 01:44:55;;;;;;;;;;;-2.60;91.90;;;;;;5069642;28;20536;-75
2022/12/16 01:47:29;;;;;;;;;;;-2.60;91.80;;;;;;5069506;28;19945;-75
2022/12/16 01:49:54;;;;;;;;;;;-2.60;91.80;;;;;;5087226;28;19920;-76
2022/12/16 01:52:22;;;;;;;;;;;-2.60;91.80;;;;;;5087560;28;19908;-75
2022/12/16 01:54:53;;;;;;;;;;;-2.60;91.80;;;;;;5087062;28;19908;-75
2022/12/16 01:57:25;;;;;;;;;;;-2.60;91.80;;;;;;5108037;28;19918;-75
2022/12/16 01:59:52;;;;;;;;;;;-2.60;91.80;;;;;;5088477;28;20606;-76
2022/12/16 02:02:18;;;;;;;;;;;-2.60;91.80;;;;;;5087558;28;19920;-75
2022/12/16 02:05:19;;;;;;;;;;;-2.60;91.80;;;;;;5087805;28;20331;-75
2022/12/16 02:07:29;;;;;;;;;;;-2.60;91.80;;;;;;5085019;28;19912;-75
2022/12/16 02:09:55;;;;;;;;;;;-2.60;91.80;;;;;;5087166;28;20268;-75
2022/12/16 02:12:27;;;;;;;;;;;-2.60;91.80;;;;;;5088195;28;20014;-75
2022/12/16 02:14:52;;;;;;;;;;;-2.60;91.80;;;;;;5087254;28;19912;-75
2022/12/16 02:17:18;;;;;;;;;;;-2.60;91.70;;;;;;5087497;28;19912;-75
2022/12/16 02:19:56;;;;;;;;;;;-2.60;91.80;;;;;;5087461;28;19912;-75
2022/12/16 02:22:44;;;;;;;;;;;-2.70;91.70;;;;;;5087431;28;19916;-75
2022/12/16 02:25:12;;;;;;;;;;;-2.70;91.70;;;;;;5087400;28;19912;-75
2022/12/16 02:27:53;;;;;;;;;;;-2.70;91.80;;;;;;5087276;28;19953;-75
2022/12/16 02:30:19;;;;;;;;;;;-2.70;91.70;;;;;;5072205;28;19957;-75
2022/12/16 02:33:03;;;;;;;;;;;-2.70;91.70;;;;;;5077440;28;20288;-75
2022/12/16 02:35:28;;;;;;;;;;;-2.70;91.70;;;;;;5066708;28;19915;-75
2022/12/16 02:37:54;;;;;;;;;;;-2.70;91.70;;;;;;5067080;28;19916;-75
2022/12/16 02:40:34;;;;;;;;;;;-2.70;91.70;;;;;;5066722;28;19912;-75
2022/12/16 02:43:03;;;;;;;;;;;-2.70;91.70;;;;;;5067090;28;19919;-75
2022/12/16 02:45:30;;;;;;;;;;;-2.70;91.70;;;;;;5088130;28;19912;-75
2022/12/16 02:47:55;;;;;;;;;;;-2.70;91.60;;;;;;5107280;28;19912;-75
2022/12/16 02:50:48;;;;;;;;;;;-2.70;91.70;;;;;;5098703;28;19919;-75
2022/12/16 02:53:13;;;;;;;;;;;-2.70;91.70;;;;;;5084075;28;19930;-75
2022/12/16 02:55:51;;;;;;;;;;;-2.70;91.70;;;;;;5087072;28;19909;-75
2022/12/16 02:58:35;;;;;;;;;;;-2.70;91.70;;;;;;5087034;28;19912;-75
2022/12/16 03:01:03;;;;;;;;;;;-2.80;91.60;;;;;;5069782;28;19923;-75
2022/12/16 03:03:34;;;;;;;;;;;-2.80;91.60;;;;;;5086924;28;20391;-75
2022/12/16 03:06:00;;;;;;;;;;;-2.80;91.60;;;;;;5086458;28;19916;-75
2022/12/16 03:08:32;;;;;;;;;;;-2.80;91.60;;;;;;5084229;28;19912;-75
2022/12/16 03:11:00;;;;;;;;;;;-2.80;91.70;;;;;;5086530;28;19915;-75
2022/12/16 03:13:27;;;;;;;;;;;-2.80;91.60;;;;;;5068974;28;20472;-76
2022/12/16 03:15:53;;;;;;;;;;;-2.80;91.60;;;;;;5086929;28;19912;-75
2022/12/16 03:18:19;;;;;;;;;;;-2.80;91.60;;;;;;5095326;28;20392;-75
2022/12/16 03:20:49;;;;;;;;;;;-2.80;91.60;;;;;;5106834;28;19918;-75
2022/12/16 03:23:18;;;;;;;;;;;-2.80;91.60;;;;;;5106887;28;19919;-76
2022/12/16 03:25:46;;;;;;;;;;;-2.80;91.60;;;;;;5106528;28;19908;-75
2022/12/16 03:28:32;;;;;;;;;;;-2.80;91.60;;;;;;5084925;28;19923;-75
2022/12/16 03:31:00;;;;;;;;;;;-2.80;91.60;;;;;;5075777;28;19955;-75
2022/12/16 03:33:33;;;;;;;;;;;-2.80;91.60;;;;;;5091135;28;19999;-75
2022/12/16 03:36:01;;;;;;;;;;;-2.80;91.50;;;;;;5110097;28;20541;-75
2022/12/16 03:38:26;;;;;;;;;;;-2.80;91.60;;;;;;5110765;28;20090;-75
2022/12/16 03:40:52;;;;;;;;;;;-2.80;91.50;;;;;;5084066;28;19927;-75
2022/12/16 03:43:18;;;;;;;;;;;-2.90;91.50;;;;;;5069926;28;20327;-76
2022/12/16 03:45:47;;;;;;;;;;;-2.90;91.50;;;;;;5069789;28;20033;-75
2022/12/16 03:48:13;;;;;;;;;;;-2.90;91.50;;;;;;5070037;28;19913;-75
2022/12/16 03:50:39;;;;;;;;;;;-2.90;91.50;;;;;;5078322;28;20352;-75
2022/12/16 03:53:05;;;;;;;;;;;-2.90;91.50;;;;;;5090218;28;19912;-75
2022/12/16 03:55:31;;;;;;;;;;;-2.90;91.50;;;;;;5089993;28;19944;-75
2022/12/16 03:57:57;;;;;;;;;;;-2.90;91.50;;;;;;5090269;28;20541;-75
2022/12/16 04:00:23;;;;;;;;;;;-2.90;91.50;;;;;;5089752;28;19923;-75
2022/12/16 04:02:49;;;;;;;;;;;-2.90;91.50;;;;;;5089367;28;19938;-75
2022/12/16 04:05:14;;;;;;;;;;;-2.90;91.40;;;;;;5089978;28;19909;-75
2022/12/16 04:07:40;;;;;;;;;;;-2.90;91.50;;;;;;5072174;28;19959;-75
2022/12/16 04:10:06;;;;;;;;;;;-2.90;91.50;;;;;;5089428;28;19966;-75
2022/12/16 04:26:17;;;;;;;;;;;-2.90;91.50;;;;;;5092429;28;20016;-75
2022/12/16 04:28:42;;;;;;;;;;;-2.90;91.40;;;;;;5089838;28;20016;-75
2022/12/16 04:31:07;;;;;;;;;;;-2.90;91.50;;;;;;5089308;28;19950;-75
